createdAt,value
2023-04-01T00:01:20.144Z,47.82
2023-04-01T00:03:49.492Z,47.80
2023-04-01T00:06:18.885Z,47.44
2023-04-01T00:08:47.828Z,47.78
2023-04-01T00:11:16.982Z,47.81
2023-04-01T00:13:45.946Z,47.74
2023-04-01T00:16:21.740Z,47.61
2023-04-01T00:18:52.197Z,47.57
2023-04-01T00:21:21.804Z,47.71
2023-04-01T00:23:52.144Z,47.67
2023-04-01T00:26:22.550Z,47.90
2023-04-01T00:28:51.645Z,47.62
2023-04-01T00:31:20.209Z,47.83
2023-04-01T00:33:49.503Z,47.83
2023-04-01T00:36:20.910Z,47.83
2023-04-01T00:38:49.689Z,47.72
2023-04-01T00:41:19.084Z,47.69
2023-04-01T00:43:50.599Z,47.67
2023-04-01T00:46:19.810Z,47.60
2023-04-01T00:48:54.571Z,47.56
2023-04-01T00:51:26.736Z,47.56
2023-04-01T00:53:57.173Z,47.50
2023-04-01T00:56:57.146Z,47.50
2023-04-01T00:59:31.739Z,47.52
2023-04-01T01:02:00.426Z,47.74
2023-04-01T01:04:31.681Z,47.57
2023-04-01T01:07:39.933Z,47.50
2023-04-01T01:10:20.982Z,47.89
2023-04-01T01:13:19.074Z,47.33
2023-04-01T01:16:12.608Z,47.63
2023-04-01T01:18:51.351Z,47.52
2023-04-01T01:21:57.145Z,47.73
2023-04-01T01:25:17.963Z,47.83
2023-04-01T01:28:29.083Z,47.76
2023-04-01T01:31:42.764Z,47.88
2023-04-01T01:34:20.515Z,47.67
2023-04-01T01:36:52.533Z,47.82
2023-04-01T01:39:21.679Z,47.62
2023-04-01T01:41:50.601Z,47.80
2023-04-01T01:44:19.329Z,47.84
2023-04-01T01:46:47.787Z,47.72
2023-04-01T01:49:16.709Z,47.98
2023-04-01T01:51:45.277Z,47.99
2023-04-01T01:54:17.159Z,48.02
2023-04-01T01:56:51.216Z,47.93
2023-04-01T01:59:22.142Z,48.16
2023-04-01T02:01:54.928Z,48.03
2023-04-01T02:04:23.927Z,48.12
2023-04-01T02:07:04.491Z,48.16
2023-04-01T02:09:35.508Z,48.19
2023-04-01T02:12:07.412Z,48.16
2023-04-01T02:14:53.479Z,48.20
2023-04-01T02:17:25.395Z,48.20
2023-04-01T02:20:10.124Z,48.21
2023-04-01T02:22:45.616Z,48.00
2023-04-01T02:25:27.101Z,48.24
2023-04-01T02:27:56.386Z,48.18
2023-04-01T02:30:25.472Z,48.15
2023-04-01T02:32:54.211Z,48.22
2023-04-01T02:35:23.225Z,48.24
2023-04-01T02:37:51.898Z,47.98
2023-04-01T02:40:21.380Z,47.80
2023-04-01T02:42:50.009Z,48.21
2023-04-01T02:45:19.041Z,47.95
2023-04-01T02:47:47.556Z,48.13
2023-04-01T02:50:16.438Z,47.98
2023-04-01T02:52:45.105Z,48.00
2023-04-01T02:55:14.904Z,47.99
2023-04-01T02:57:43.492Z,48.12
2023-04-01T03:00:13.315Z,48.02
2023-04-01T03:02:41.883Z,48.03
2023-04-01T03:05:11.385Z,48.12
2023-04-01T03:07:40.134Z,48.00
2023-04-01T03:10:09.956Z,47.82
2023-04-01T03:12:38.687Z,47.66
2023-04-01T03:15:10.714Z,47.62
2023-04-01T03:17:42.326Z,47.90
2023-04-01T03:20:12.559Z,47.85
2023-04-01T03:22:43.071Z,47.84
2023-04-01T03:25:12.554Z,47.87
2023-04-01T03:27:41.206Z,47.88
2023-04-01T03:30:11.681Z,47.93
2023-04-01T03:32:49.317Z,47.76
2023-04-01T03:35:18.357Z,47.83
2023-04-01T03:37:48.060Z,47.79
2023-04-01T03:40:17.277Z,47.61
2023-04-01T03:42:46.065Z,47.69
2023-04-01T03:45:15.009Z,47.65
2023-04-01T03:47:43.563Z,47.63
2023-04-01T03:50:12.648Z,47.65
2023-04-01T03:52:41.304Z,47.55
2023-04-01T03:55:10.287Z,47.63
2023-04-01T03:57:41.472Z,47.59
2023-04-01T04:00:19.208Z,47.54
2023-04-01T04:02:52.370Z,47.52
2023-04-01T04:05:27.628Z,47.45
2023-04-01T04:07:56.471Z,47.52
2023-04-01T04:10:26.851Z,47.48
2023-04-01T04:12:55.642Z,47.59
2023-04-01T04:15:26.868Z,47.29
2023-04-01T04:17:55.358Z,47.53
2023-04-01T04:20:24.292Z,47.38
2023-04-01T04:22:52.989Z,47.32
2023-04-01T04:25:22.196Z,47.33
2023-04-01T04:27:50.860Z,47.54
2023-04-01T04:30:20.036Z,47.31
2023-04-01T04:32:48.893Z,47.17
2023-04-01T04:35:17.881Z,47.33
2023-04-01T04:37:47.685Z,47.21
2023-04-01T04:40:17.213Z,47.10
2023-04-01T04:42:45.853Z,47.24
2023-04-01T04:45:18.632Z,47.04
2023-04-01T04:47:55.734Z,47.03
2023-04-01T04:50:25.836Z,47.13
2023-04-01T04:52:55.006Z,47.12
2023-04-01T04:55:24.066Z,47.06
2023-04-01T04:58:07.083Z,46.90
2023-04-01T05:00:36.593Z,46.75
2023-04-01T05:03:09.270Z,47.11
2023-04-01T05:05:38.564Z,46.90
2023-04-01T05:08:08.757Z,47.13
2023-04-01T05:10:37.717Z,47.13
2023-04-01T05:13:06.945Z,46.86
2023-04-01T05:15:36.922Z,46.88
2023-04-01T05:18:05.732Z,46.86
2023-04-01T05:20:34.744Z,46.79
2023-04-01T05:23:03.737Z,46.85
2023-04-01T05:25:33.189Z,46.83
2023-04-01T05:28:02.029Z,46.60
2023-04-01T05:30:31.021Z,46.89
2023-04-01T05:33:25.772Z,46.55
2023-04-01T05:35:55.884Z,46.49
2023-04-01T05:38:24.645Z,46.73
2023-04-01T05:41:01.218Z,46.81
2023-04-01T05:43:31.106Z,46.69
2023-04-01T05:46:05.067Z,46.36
2023-04-01T05:48:41.017Z,46.26
2023-04-01T05:51:15.899Z,46.46
2023-04-01T05:53:44.871Z,46.22
2023-04-01T05:56:14.210Z,46.46
2023-04-01T05:58:51.975Z,46.03
2023-04-01T06:01:21.764Z,46.27
2023-04-01T06:03:50.720Z,46.23
2023-04-01T06:06:29.558Z,46.17
2023-04-01T06:09:31.435Z,46.03
2023-04-01T06:12:35.698Z,46.35
2023-04-01T06:15:27.123Z,46.25
2023-04-01T06:18:12.986Z,46.30
2023-04-01T06:20:44.880Z,46.27
2023-04-01T06:23:29.974Z,46.41
2023-04-01T06:26:23.119Z,46.42
2023-04-01T06:29:07.272Z,46.50
2023-04-01T06:32:07.202Z,48.20
2023-04-01T06:35:03.475Z,50.42
2023-04-01T06:37:56.568Z,51.66
2023-04-01T06:41:15.418Z,52.14
2023-04-01T06:44:33.671Z,52.98
2023-04-01T06:47:46.424Z,51.41
2023-04-01T06:50:54.720Z,50.02
2023-04-01T06:54:06.536Z,49.22
2023-04-01T06:57:02.533Z,49.03
2023-04-01T06:59:34.088Z,48.97
2023-04-01T07:02:25.830Z,48.85
2023-04-01T07:04:56.425Z,48.53
2023-04-01T07:07:43.112Z,48.42
2023-04-01T07:10:21.659Z,48.32
2023-04-01T07:13:38.277Z,48.12
2023-04-01T07:16:36.338Z,48.02
2023-04-01T07:19:24.464Z,47.80
2023-04-01T07:22:35.186Z,47.84
2023-04-01T07:25:19.828Z,47.67
2023-04-01T07:28:03.634Z,47.65
2023-04-01T07:30:48.730Z,47.52
2023-04-01T07:33:59.598Z,47.61
2023-04-01T07:36:43.906Z,47.60
2023-04-01T07:39:40.079Z,47.58
2023-04-01T07:42:40.697Z,47.28
2023-04-01T07:45:39.046Z,47.53
2023-04-01T07:49:06.437Z,50.54
2023-04-01T07:52:01.801Z,50.76
2023-04-01T07:54:55.230Z,51.07
2023-04-01T07:57:40.038Z,51.75
2023-04-01T08:00:22.315Z,52.62
2023-04-01T08:03:48.500Z,52.28
2023-04-01T08:06:38.253Z,52.31
2023-04-01T08:09:25.192Z,52.17
2023-04-01T08:12:42.012Z,51.93
2023-04-01T08:15:35.416Z,51.63
2023-04-01T08:18:42.975Z,52.50
2023-04-01T08:21:29.782Z,52.22
2023-04-01T08:24:00.172Z,51.73
2023-04-01T08:26:46.474Z,52.07
2023-04-01T08:29:22.681Z,52.24
2023-04-01T08:32:24.232Z,51.54
2023-04-01T08:35:18.289Z,51.47
2023-04-01T08:37:48.931Z,51.70
2023-04-01T08:41:10.708Z,52.18
2023-04-01T08:44:35.837Z,52.81
2023-04-01T08:47:41.593Z,53.38
2023-04-01T08:50:44.541Z,52.14
2023-04-01T08:53:37.612Z,51.31
2023-04-01T08:56:23.522Z,50.95
2023-04-01T08:59:24.890Z,51.15
2023-04-01T09:02:14.538Z,50.87
2023-04-01T09:05:20.593Z,50.98
2023-04-01T09:08:27.171Z,50.69
2023-04-01T09:11:32.666Z,50.77
2023-04-01T09:14:35.909Z,51.49
2023-04-01T09:17:53.324Z,52.27
2023-04-01T09:20:40.711Z,52.29
2023-04-01T09:23:49.355Z,51.97
2023-04-01T09:26:44.169Z,51.37
2023-04-01T09:29:56.369Z,52.82
2023-04-01T09:33:10.096Z,51.70
2023-04-01T09:35:49.409Z,51.14
2023-04-01T09:38:36.417Z,51.15
2023-04-01T09:41:41.111Z,50.57
2023-04-01T09:45:09.539Z,50.21
2023-04-01T09:48:11.521Z,49.71
2023-04-01T09:51:27.700Z,49.29
2023-04-01T09:54:07.237Z,48.94
2023-04-01T09:57:17.681Z,48.92
2023-04-01T10:00:03.381Z,49.01
2023-04-01T10:03:27.232Z,47.32
2023-04-01T10:06:40.974Z,46.64
2023-04-01T10:09:34.134Z,46.37
2023-04-01T10:12:30.592Z,43.55
2023-04-01T10:15:31.350Z,43.99
2023-04-01T10:18:42.141Z,42.36
2023-04-01T10:21:35.494Z,41.35
2023-04-01T10:24:33.373Z,39.74
2023-04-01T10:27:44.457Z,38.95
2023-04-01T10:31:19.133Z,38.97
2023-04-01T10:34:22.143Z,39.27
2023-04-01T10:36:59.325Z,39.06
2023-04-01T10:40:20.758Z,39.89
2023-04-01T10:43:22.463Z,40.02
2023-04-01T10:46:19.155Z,39.99
2023-04-01T10:48:50.558Z,40.01
2023-04-01T10:51:45.234Z,40.17
2023-04-01T10:54:45.252Z,41.07
2023-04-01T10:58:34.360Z,41.73
2023-04-01T11:02:03.989Z,41.64
2023-04-01T11:05:37.944Z,41.19
2023-04-01T11:09:04.074Z,40.98
2023-04-01T11:11:48.592Z,40.55
2023-04-01T11:15:04.953Z,40.37
2023-04-01T11:18:21.585Z,39.65
2023-04-01T11:21:14.078Z,39.41
2023-04-01T11:24:20.191Z,39.15
2023-04-01T11:27:27.231Z,38.95
2023-04-01T11:30:02.219Z,38.14
2023-04-01T11:33:11.792Z,37.72
2023-04-01T11:36:09.231Z,36.60
2023-04-01T11:38:56.810Z,35.73
2023-04-01T11:42:36.213Z,35.54
2023-04-01T11:45:38.939Z,36.01
2023-04-01T11:48:44.837Z,35.72
2023-04-01T11:51:54.461Z,35.35
2023-04-01T11:55:10.502Z,35.64
2023-04-01T11:58:06.370Z,35.89
2023-04-01T12:00:53.547Z,36.50
2023-04-01T12:04:08.114Z,36.25
2023-04-01T12:06:49.044Z,36.84
2023-04-01T12:09:44.072Z,37.28
2023-04-01T12:12:25.153Z,37.48
2023-04-01T12:15:12.845Z,37.72
2023-04-01T12:18:02.152Z,37.57
2023-04-01T12:20:54.704Z,37.03
2023-04-01T12:23:57.677Z,36.92
2023-04-01T12:26:58.575Z,33.83
2023-04-01T12:29:49.356Z,33.42
2023-04-01T12:32:34.477Z,32.80
2023-04-01T12:35:41.072Z,32.29
2023-04-01T12:38:21.113Z,31.89
2023-04-01T12:41:38.424Z,32.10
2023-04-01T12:44:21.001Z,31.97
2023-04-01T12:47:31.924Z,31.75
2023-04-01T12:50:36.624Z,31.88
2023-04-01T12:53:44.360Z,32.06
2023-04-01T12:56:54.132Z,31.87
2023-04-01T12:59:48.362Z,31.39
2023-04-01T13:03:06.176Z,31.44
2023-04-01T13:06:05.723Z,31.37
2023-04-01T13:09:00.198Z,31.00
2023-04-01T13:12:05.600Z,31.28
2023-04-01T13:15:17.242Z,31.17
2023-04-01T13:17:58.872Z,31.00
2023-04-01T13:20:42.873Z,31.56
2023-04-01T13:23:38.922Z,31.47
2023-04-01T13:26:20.261Z,31.39
2023-04-01T13:29:08.578Z,31.80
2023-04-01T13:32:46.813Z,30.75
2023-04-01T13:35:30.750Z,30.51
2023-04-01T13:38:18.415Z,29.99
2023-04-01T13:41:13.013Z,30.12
2023-04-01T13:44:06.049Z,30.14
2023-04-01T13:46:53.268Z,29.81
2023-04-01T13:49:48.365Z,30.34
2023-04-01T13:52:30.460Z,30.13
2023-04-01T13:55:22.585Z,29.75
2023-04-01T13:58:24.788Z,29.47
2023-04-01T14:01:08.969Z,29.07
2023-04-01T14:04:04.878Z,28.64
2023-04-01T14:06:36.413Z,28.50
2023-04-01T14:09:27.905Z,29.07
2023-04-01T14:12:30.337Z,28.99
2023-04-01T14:15:31.369Z,29.13
2023-04-01T14:18:40.785Z,30.60
2023-04-01T14:21:28.415Z,30.73
2023-04-01T14:24:13.785Z,30.39
2023-04-01T14:27:14.898Z,29.49
2023-04-01T14:30:40.705Z,30.59
2023-04-01T14:33:31.129Z,30.51
2023-04-01T14:36:20.533Z,30.95
2023-04-01T14:39:01.482Z,30.68
2023-04-01T14:42:15.303Z,30.55
2023-04-01T14:45:22.268Z,30.69
2023-04-01T14:48:30.266Z,30.42
2023-04-01T14:51:23.631Z,30.42
2023-04-01T14:54:44.129Z,30.49
2023-04-01T14:57:28.331Z,30.63
2023-04-01T15:00:18.969Z,30.84
2023-04-01T15:03:26.561Z,30.71
2023-04-01T15:06:40.518Z,30.78
2023-04-01T15:09:24.091Z,30.32
2023-04-01T15:12:17.016Z,29.71
2023-04-01T15:15:00.576Z,30.23
2023-04-01T15:17:44.262Z,30.88
2023-04-01T15:20:45.196Z,31.12
2023-04-01T15:23:47.261Z,30.80
2023-04-01T15:26:55.920Z,30.63
2023-04-01T15:30:02.855Z,30.57
2023-04-01T15:33:00.785Z,30.89
2023-04-01T15:35:53.547Z,30.55
2023-04-01T15:38:51.013Z,30.21
2023-04-01T15:41:55.963Z,29.95
2023-04-01T15:45:14.533Z,29.46
2023-04-01T15:48:28.374Z,29.26
2023-04-01T15:51:39.032Z,29.16
2023-04-01T15:54:36.586Z,29.31
2023-04-01T15:57:43.685Z,28.46
2023-04-01T16:00:33.020Z,28.78
2023-04-01T16:03:36.383Z,28.66
2023-04-01T16:06:11.557Z,28.93
2023-04-01T16:09:11.969Z,28.65
2023-04-01T16:11:59.316Z,28.33
2023-04-01T16:14:46.405Z,28.13
2023-04-01T16:17:47.702Z,28.18
2023-04-01T16:20:48.852Z,27.90
2023-04-01T16:23:44.901Z,27.93
2023-04-01T16:26:46.450Z,27.87
2023-04-01T16:30:17.069Z,27.35
2023-04-01T16:32:53.439Z,27.12
2023-04-01T16:35:54.304Z,27.61
2023-04-01T16:38:32.269Z,28.02
2023-04-01T16:41:09.100Z,27.70
2023-04-01T16:43:55.658Z,28.13
2023-04-01T16:46:52.748Z,28.14
2023-04-01T16:49:46.868Z,27.97
2023-04-01T16:52:17.639Z,27.72
2023-04-01T16:55:20.390Z,26.83
2023-04-01T16:57:59.833Z,27.41
2023-04-01T17:00:37.410Z,27.73
2023-04-01T17:03:18.708Z,27.87
2023-04-01T17:06:09.254Z,27.86
2023-04-01T17:09:02.771Z,28.53
2023-04-01T17:11:49.516Z,28.57
2023-04-01T17:15:00.823Z,28.94
2023-04-01T17:17:58.932Z,29.02
2023-04-01T17:20:27.340Z,30.06
2023-04-01T17:23:05.435Z,30.52
2023-04-01T17:26:00.146Z,30.99
2023-04-01T17:29:06.136Z,31.65
2023-04-01T17:32:02.249Z,32.04
2023-04-01T17:35:00.960Z,32.28
2023-04-01T17:37:56.146Z,32.48
2023-04-01T17:40:53.973Z,32.85
2023-04-01T17:43:51.361Z,33.02
2023-04-01T17:46:51.080Z,33.16
2023-04-01T17:49:45.968Z,33.43
2023-04-01T17:52:35.984Z,33.49
2023-04-01T17:55:38.264Z,33.92
2023-04-01T17:58:45.816Z,34.02
2023-04-01T18:01:20.014Z,34.02
2023-04-01T18:04:34.156Z,34.33
2023-04-01T18:07:32.437Z,34.39
2023-04-01T18:10:55.849Z,34.52
2023-04-01T18:13:38.770Z,34.60
2023-04-01T18:16:43.733Z,34.84
2023-04-01T18:19:30.685Z,34.85
2023-04-01T18:22:41.540Z,35.03
2023-04-01T18:25:43.360Z,35.12
2023-04-01T18:28:45.619Z,35.21
2023-04-01T18:31:22.478Z,35.40
2023-04-01T18:33:53.962Z,35.48
2023-04-01T18:36:42.011Z,35.62
2023-04-01T18:39:20.745Z,35.64
2023-04-01T18:42:17.373Z,35.77
2023-04-01T18:44:58.828Z,35.67
2023-04-01T18:48:08.330Z,36.02
2023-04-01T18:50:45.285Z,36.09
2023-04-01T18:53:26.016Z,36.13
2023-04-01T18:55:57.573Z,36.25
2023-04-01T18:58:36.249Z,36.31
2023-04-01T19:01:39.205Z,36.41
2023-04-01T19:04:17.554Z,36.81
2023-04-01T19:06:53.071Z,36.49
2023-04-01T19:09:44.003Z,36.57
2023-04-01T19:12:39.654Z,36.76
2023-04-01T19:15:29.403Z,36.67
2023-04-01T19:18:04.178Z,36.97
2023-04-01T19:20:49.541Z,36.93
2023-04-01T19:23:51.337Z,36.85
2023-04-01T19:26:49.382Z,36.98
2023-04-01T19:29:41.004Z,36.88
2023-04-01T19:32:46.887Z,37.01
2023-04-01T19:35:43.296Z,37.13
2023-04-01T19:38:21.108Z,37.08
2023-04-01T19:40:54.765Z,37.27
2023-04-01T19:43:50.314Z,37.09
2023-04-01T19:46:54.490Z,37.17
2023-04-01T19:49:32.043Z,37.10
2023-04-01T19:52:21.321Z,37.33
2023-04-01T19:55:10.242Z,37.31
2023-04-01T19:58:06.458Z,37.40
2023-04-01T20:00:44.205Z,37.28
2023-04-01T20:04:00.751Z,37.36
2023-04-01T20:07:22.181Z,37.62
2023-04-01T20:09:52.570Z,37.81
2023-04-01T20:12:40.957Z,37.76
2023-04-01T20:15:36.911Z,37.80
2023-04-01T20:18:42.936Z,37.91
2023-04-01T20:21:40.925Z,37.95
2023-04-01T20:24:15.698Z,37.94
2023-04-01T20:27:00.844Z,37.85
2023-04-01T20:29:47.839Z,38.04
2023-04-01T20:32:49.972Z,38.19
2023-04-01T20:35:37.850Z,37.94
2023-04-01T20:38:31.233Z,37.92
2023-04-01T20:41:23.387Z,38.13
2023-04-01T20:44:21.574Z,38.27
2023-04-01T20:47:05.872Z,38.09
2023-04-01T20:50:00.506Z,38.39
2023-04-01T20:53:06.764Z,38.36
2023-04-01T20:56:04.297Z,38.09
2023-04-01T20:59:01.148Z,38.37
2023-04-01T21:02:01.220Z,38.36
2023-04-01T21:04:58.005Z,38.47
2023-04-01T21:07:47.430Z,38.47
2023-04-01T21:11:06.063Z,38.44
2023-04-01T21:14:26.189Z,38.47
2023-04-01T21:17:14.339Z,38.46
2023-04-01T21:20:10.747Z,38.48
2023-04-01T21:22:56.739Z,38.63
2023-04-01T21:25:35.933Z,38.66
2023-04-01T21:28:43.476Z,38.67
2023-04-01T21:31:37.094Z,38.80
2023-04-01T21:34:36.632Z,38.93
2023-04-01T21:37:42.718Z,38.88
2023-04-01T21:40:51.277Z,39.01
2023-04-01T21:43:41.296Z,39.09
2023-04-01T21:46:43.107Z,38.95
2023-04-01T21:49:40.385Z,39.31
2023-04-01T21:53:01.988Z,39.24
2023-04-01T21:56:07.777Z,39.18
2023-04-01T21:59:16.013Z,39.46
2023-04-01T22:02:30.606Z,39.60
2023-04-01T22:05:37.777Z,39.43
2023-04-01T22:08:31.154Z,39.76
2023-04-01T22:11:35.702Z,39.81
2023-04-01T22:14:21.450Z,39.78
2023-04-01T22:17:04.739Z,39.88
2023-04-01T22:20:24.402Z,39.86
2023-04-01T22:23:30.895Z,39.88
2023-04-01T22:26:31.179Z,40.04
2023-04-01T22:29:32.249Z,40.02
2023-04-01T22:32:08.836Z,40.30
2023-04-01T22:35:01.556Z,40.36
2023-04-01T22:37:46.834Z,40.21
2023-04-01T22:40:47.044Z,40.48
2023-04-01T22:43:39.553Z,40.53
2023-04-01T22:46:13.602Z,40.53
2023-04-01T22:48:59.236Z,40.66
2023-04-01T22:52:08.863Z,40.50
2023-04-01T22:55:11.661Z,40.86
2023-04-01T22:57:52.424Z,40.72
2023-04-01T23:00:45.870Z,40.95
2023-04-01T23:03:32.674Z,40.83
2023-04-01T23:06:04.164Z,40.99
2023-04-01T23:08:57.107Z,41.02
2023-04-01T23:11:54.666Z,40.91
2023-04-01T23:14:24.975Z,40.99
2023-04-01T23:17:14.966Z,41.14
2023-04-01T23:20:13.786Z,41.26
2023-04-01T23:23:23.481Z,41.64
2023-04-01T23:26:15.856Z,41.58
2023-04-01T23:28:55.733Z,41.77
2023-04-01T23:31:38.321Z,41.78
2023-04-01T23:34:13.464Z,41.93
2023-04-01T23:36:51.946Z,42.17
2023-04-01T23:39:35.383Z,42.16
2023-04-01T23:42:31.430Z,42.09
2023-04-01T23:45:05.849Z,42.16
2023-04-01T23:47:42.292Z,42.22
2023-04-01T23:50:24.900Z,42.34
2023-04-01T23:53:20.743Z,42.35
2023-04-01T23:55:49.454Z,42.52
2023-04-01T23:58:44.595Z,42.67
